Time;durP1;ratioP1;P1;durP2;ratioP2;P2;SDS_P1;SDS_P2;PMS_P1;PMS_P2;Temp;Humidity;BMP_temperature;BMP_pressure;BME280_temperature;BME280_humidity;BME280_pressure;Samples;Min_cycle;Max_cycle;Signal;HPM_P1;HPM_P2
2021/09/22 00:01:59;;;;;;;;;;;;;;;18.28;62.27;102671.63;5075115;28;1005;-62
2021/09/22 00:04:24;;;;;;;;;;;;;;;18.26;62.33;102663.66;5074539;28;1777;-62
2021/09/22 00:06:49;;;;;;;;;;;;;;;18.26;62.63;102673.59;5074576;28;835;-63
2021/09/22 00:09:14;;;;;;;;;;;;;;;18.25;62.58;102667.31;5074728;28;1979;-62
2021/09/22 00:11:40;;;;;;;;;;;;;;;18.25;62.55;102672.72;5074591;28;736;-63
2021/09/22 00:14:06;;;;;;;;;;;;;;;18.24;62.22;102665.59;5074197;28;787;-63
2021/09/22 00:16:31;;;;;;;;;;;;;;;18.24;61.79;102665.59;5074937;28;951;-63
2021/09/22 00:18:56;;;;;;;;;;;;;;;18.24;62.00;102670.13;5074961;28;965;-63
2021/09/22 00:21:21;;;;;;;;;;;;;;;18.22;62.58;102667.53;5074412;28;1953;-62
2021/09/22 00:23:46;;;;;;;;;;;;;;;18.22;62.67;102670.22;5074284;28;1665;-62
2021/09/22 00:26:11;;;;;;;;;;;;;;;18.22;62.53;102678.31;5074021;28;1516;-62
2021/09/22 00:28:36;;;;;;;;;;;;;;;18.21;62.21;102665.78;5074840;28;1969;-62
2021/09/22 00:31:01;;;;;;;;;;;;;;;18.20;62.48;102671.28;5074770;28;1069;-62
2021/09/22 00:33:27;;;;;;;;;;;;;;;18.20;62.78;102665.88;5074466;28;1013;-63
2021/09/22 00:35:52;;;;;;;;;;;;;;;18.19;62.18;102667.72;5074652;28;889;-63
2021/09/22 00:38:17;;;;;;;;;;;;;;;18.19;62.69;102669.56;5074442;28;1064;-63
2021/09/22 00:40:42;;;;;;;;;;;;;;;18.19;62.88;102658.75;5074290;28;1991;-63
2021/09/22 00:43:07;;;;;;;;;;;;;;;18.18;62.98;102671.38;5074542;28;812;-63
2021/09/22 00:45:32;;;;;;;;;;;;;;;18.17;62.37;102664.25;5074587;28;832;-63
2021/09/22 00:47:57;;;;;;;;;;;;;;;18.17;62.44;102658.00;5074071;28;1886;-63
2021/09/22 00:50:22;;;;;;;;;;;;;;;18.15;62.52;102655.41;5074430;28;933;-63
2021/09/22 00:52:48;;;;;;;;;;;;;;;18.17;63.02;102655.28;5074410;28;815;-62
2021/09/22 00:55:13;;;;;;;;;;;;;;;18.15;63.06;102650.00;5074456;28;855;-62
2021/09/22 00:57:38;;;;;;;;;;;;;;;18.14;62.81;102647.41;5074284;28;1951;-63
2021/09/22 01:00:03;;;;;;;;;;;;;;;18.13;62.66;102651.94;5074320;28;1943;-64
2021/09/22 01:02:28;;;;;;;;;;;;;;;18.13;62.45;102654.63;5074483;28;1176;-64
2021/09/22 01:04:54;;;;;;;;;;;;;;;18.13;62.67;102653.78;5074446;28;1195;-65
2021/09/22 01:07:19;;;;;;;;;;;;;;;18.12;62.94;102655.59;5074022;28;1964;-66
2021/09/22 01:09:44;;;;;;;;;;;;;;;18.12;62.78;102657.44;5073966;28;1706;-66
2021/09/22 01:12:09;;;;;;;;;;;;;;;18.12;62.99;102660.13;5074186;28;1085;-62
2021/09/22 01:14:34;;;;;;;;;;;;;;;18.11;63.13;102653.00;5073661;28;998;-63
2021/09/22 01:16:59;;;;;;;;;;;;;;;18.10;62.80;102653.97;5073982;28;1903;-63
2021/09/22 01:19:26;;;;;;;;;;;;;;;18.09;63.22;102653.13;5074083;28;909;-64
2021/09/22 01:21:51;;;;;;;;;;;;;;;18.09;63.17;102649.56;5074001;28;826;-64
2021/09/22 01:24:16;;;;;;;;;;;;;;;18.08;63.18;102659.50;5076049;28;954;-64
2021/09/22 01:26:41;;;;;;;;;;;;;;;18.08;63.11;102653.25;5078441;28;875;-64
2021/09/22 01:29:06;;;;;;;;;;;;;;;18.06;62.69;102647.94;5077591;28;1949;-65
2021/09/22 01:31:31;;;;;;;;;;;;;;;18.06;62.83;102644.38;5077962;28;1016;-65
2021/09/22 01:33:57;;;;;;;;;;;;;;;18.04;63.01;102648.06;5077973;28;831;-66
2021/09/22 01:36:22;;;;;;;;;;;;;;;18.04;62.82;102650.75;5077280;28;1911;-66
2021/09/22 01:38:47;;;;;;;;;;;;;;;18.03;62.95;102640.91;5078019;28;1930;-66
2021/09/22 01:41:12;;;;;;;;;;;;;;;18.04;63.24;102647.19;5077868;28;1017;-66
2021/09/22 01:43:37;;;;;;;;;;;;;;;18.02;62.55;102649.97;5077778;28;977;-64
2021/09/22 01:46:02;;;;;;;;;;;;;;;18.02;63.03;102643.72;5077644;28;1253;-64
2021/09/22 01:48:27;;;;;;;;;;;;;;;18.01;62.95;102642.84;5059616;28;1890;-64
2021/09/22 01:50:52;;;;;;;;;;;;;;;18.01;63.34;102647.38;5077621;28;866;-68
2021/09/22 01:53:17;;;;;;;;;;;;;;;18.01;63.20;102644.69;5077323;28;1973;-67
2021/09/22 01:55:44;;;;;;;;;;;;;;;18.00;63.50;102641.13;5077805;28;1001;-66
2021/09/22 01:58:09;;;;;;;;;;;;;;;17.99;63.10;102638.53;5077300;28;863;-65
2021/09/22 02:00:34;;;;;;;;;;;;;;;17.99;62.83;102643.91;5077076;28;823;-65
2021/09/22 02:02:59;;;;;;;;;;;;;;;17.99;62.89;102649.31;5077262;28;1339;-66
2021/09/22 02:05:24;;;;;;;;;;;;;;;17.97;63.05;102635.06;5077511;28;1049;-65
2021/09/22 02:07:49;;;;;;;;;;;;;;;17.96;63.15;102634.19;5077296;28;1975;-64
2021/09/22 02:10:15;;;;;;;;;;;;;;;17.96;62.81;102636.91;5077288;28;961;-65
2021/09/22 02:12:40;;;;;;;;;;;;;;;17.96;63.02;102633.34;5076511;28;2180;-65
2021/09/22 02:15:05;;;;;;;;;;;;;;;17.96;63.33;102638.72;5059060;28;1002;-64
2021/09/22 02:17:30;;;;;;;;;;;;;;;17.95;63.21;102635.16;5077318;28;1591;-64
2021/09/22 02:19:55;;;;;;;;;;;;;;;17.94;63.02;102629.88;5076968;28;831;-65
2021/09/22 02:22:20;;;;;;;;;;;;;;;17.93;63.17;102629.00;5076959;28;816;-64
2021/09/22 02:24:45;;;;;;;;;;;;;;;17.92;63.11;102626.41;5077149;28;917;-64
2021/09/22 02:27:10;;;;;;;;;;;;;;;17.93;63.03;102620.03;5077175;28;2008;-64
2021/09/22 02:29:35;;;;;;;;;;;;;;;17.92;63.12;102616.50;5076659;28;1879;-65
2021/09/22 02:32:00;;;;;;;;;;;;;;;17.91;63.29;102614.78;5076796;28;1065;-64
2021/09/22 02:34:25;;;;;;;;;;;;;;;17.91;63.19;102613.91;5077140;28;1005;-65
2021/09/22 02:36:50;;;;;;;;;;;;;;;17.90;63.25;102610.34;5076091;28;1458;-66
2021/09/22 02:39:16;;;;;;;;;;;;;;;17.91;63.13;102608.53;5076927;28;994;-66
2021/09/22 02:41:41;;;;;;;;;;;;;;;17.90;63.08;102617.59;5076586;28;1009;-65
2021/09/22 02:44:06;;;;;;;;;;;;;;;17.89;63.48;102614.03;5076881;28;811;-65
2021/09/22 02:46:31;;;;;;;;;;;;;;;17.89;63.68;102610.47;5076659;28;965;-65
2021/09/22 02:48:56;;;;;;;;;;;;;;;17.88;63.00;102609.59;5076248;28;1998;-65
2021/09/22 02:51:21;;;;;;;;;;;;;;;17.88;63.37;102604.19;5076436;28;2007;-65
2021/09/22 02:53:46;;;;;;;;;;;;;;;17.88;63.27;102608.72;5076615;28;1056;-65
2021/09/22 02:56:11;;;;;;;;;;;;;;;17.88;63.29;102603.34;5076200;28;898;-65
2021/09/22 02:58:36;;;;;;;;;;;;;;;17.86;63.78;102603.44;5076749;28;866;-64
2021/09/22 03:01:01;;;;;;;;;;;;;;;17.86;63.28;102599.88;5076589;28;894;-64
2021/09/22 03:03:27;;;;;;;;;;;;;;;17.86;63.29;102608.84;5076215;28;1135;-63
2021/09/22 03:05:52;;;;;;;;;;;;;;;17.87;63.52;102609.69;5076385;28;1947;-63
2021/09/22 03:08:17;;;;;;;;;;;;;;;17.85;63.50;102604.41;5076163;28;1917;-63
2021/09/22 03:10:43;;;;;;;;;;;;;;;17.85;63.25;102608.94;5076147;28;1021;-63
2021/09/22 03:13:08;;;;;;;;;;;;;;;17.85;63.19;102603.53;5076327;28;874;-63
2021/09/22 03:15:33;;;;;;;;;;;;;;;17.84;63.79;102601.81;5075838;28;847;-63
2021/09/22 03:17:58;;;;;;;;;;;;;;;17.85;63.40;102600.84;5075615;28;1801;-63
2021/09/22 03:20:23;;;;;;;;;;;;;;;17.83;63.75;102603.63;5075853;28;1005;-63
2021/09/22 03:22:48;;;;;;;;;;;;;;;17.82;64.05;102593.81;5075821;28;834;-62
2021/09/22 03:25:13;;;;;;;;;;;;;;;17.81;63.19;102589.38;5075863;28;1867;-63
2021/09/22 03:27:38;;;;;;;;;;;;;;;17.81;63.35;102593.91;5075696;28;1955;-63
2021/09/22 03:30:03;;;;;;;;;;;;;;;17.82;63.40;102587.56;5075812;28;811;-66
2021/09/22 03:32:28;;;;;;;;;;;;;;;17.80;63.79;102581.41;5075679;28;1064;-66
2021/09/22 03:34:53;;;;;;;;;;;;;;;17.80;63.35;102584.09;5075903;28;970;-66
2021/09/22 03:37:18;;;;;;;;;;;;;;;17.80;63.63;102584.97;5057812;28;1239;-66
2021/09/22 03:39:43;;;;;;;;;;;;;;;17.79;63.35;102590.47;5075653;28;1040;-66
2021/09/22 03:42:08;;;;;;;;;;;;;;;17.80;63.36;102589.50;5075340;28;1959;-67
2021/09/22 03:44:33;;;;;;;;;;;;;;;17.78;63.66;102580.63;5075194;28;1969;-67
2021/09/22 03:46:59;;;;;;;;;;;;;;;17.79;63.64;102582.38;5074288;28;1651;-64
2021/09/22 03:49:24;;;;;;;;;;;;;;;17.77;63.72;102579.78;5074788;28;1969;-63
2021/09/22 03:51:49;;;;;;;;;;;;;;;17.76;63.92;102583.44;5075164;28;989;-63
2021/09/22 03:54:14;;;;;;;;;;;;;;;17.77;63.31;102573.50;5075253;28;1064;-63
2021/09/22 03:56:39;;;;;;;;;;;;;;;17.75;63.52;102564.66;5075523;28;930;-63
2021/09/22 03:59:04;;;;;;;;;;;;;;;17.73;63.45;102563.94;5075175;28;1888;-63
2021/09/22 04:01:29;;;;;;;;;;;;;;;17.74;63.69;102565.63;5074825;28;1864;-64
2021/09/22 04:03:54;;;;;;;;;;;;;;;17.73;63.63;102570.19;5074540;28;1351;-63
2021/09/22 04:06:19;;;;;;;;;;;;;;;17.74;63.76;102576.41;5075200;28;855;-64
2021/09/22 04:08:44;;;;;;;;;;;;;;;17.73;63.56;102578.28;5075293;28;1909;-66
2021/09/22 04:11:10;;;;;;;;;;;;;;;17.74;63.67;102581.81;5074836;28;927;-66
2021/09/22 04:13:35;;;;;;;;;;;;;;;17.74;63.60;102573.72;5074861;28;1006;-66
2021/09/22 04:16:00;;;;;;;;;;;;;;;17.71;63.60;102576.66;5074812;28;1057;-64
2021/09/22 04:18:25;;;;;;;;;;;;;;;17.73;63.65;102577.41;5074565;28;1892;-65
2021/09/22 04:20:51;;;;;;;;;;;;;;;17.72;63.66;102575.69;5074773;28;815;-66
2021/09/22 04:23:16;;;;;;;;;;;;;;;17.72;63.49;102575.69;5074806;28;894;-66
2021/09/22 04:25:41;;;;;;;;;;;;;;;17.71;63.38;102571.25;5074784;28;989;-65
2021/09/22 04:28:06;;;;;;;;;;;;;;;17.70;63.59;102581.16;5074314;28;1906;-64
2021/09/22 04:30:31;;;;;;;;;;;;;;;17.69;64.09;102580.31;5074296;28;881;-65
2021/09/22 04:32:56;;;;;;;;;;;;;;;17.68;64.22;102570.50;5071284;28;1418;-66
2021/09/22 04:35:21;;;;;;;;;;;;;;;17.69;63.86;102585.69;5044218;28;1364;-65
2021/09/22 04:37:47;;;;;;;;;;;;;;;17.69;63.79;102583.00;5056883;28;1331;-67
2021/09/22 04:40:12;;;;;;;;;;;;;;;17.68;63.81;102575.00;5059779;28;1101;-67
2021/09/22 04:42:38;;;;;;;;;;;;;;;17.68;64.08;102570.50;5070638;28;1599;-64
2021/09/22 04:45:03;;;;;;;;;;;;;;;17.68;63.88;102572.31;5065184;28;1656;-65
2021/09/22 04:47:29;;;;;;;;;;;;;;;17.69;64.33;102571.34;5063288;28;1961;-65
2021/09/22 04:49:54;;;;;;;;;;;;;;;17.68;63.85;102575.88;5064151;28;1524;-66
2021/09/22 04:52:19;;;;;;;;;;;;;;;17.67;63.71;102575.97;5063628;28;1615;-65
2021/09/22 04:54:44;;;;;;;;;;;;;;;17.66;64.08;102580.50;5064898;28;1636;-68
2021/09/22 04:57:09;;;;;;;;;;;;;;;17.66;63.87;102577.81;5074457;28;1060;-66
2021/09/22 04:59:34;;;;;;;;;;;;;;;17.66;64.13;102588.59;5066966;28;1140;-66
2021/09/22 05:01:59;;;;;;;;;;;;;;;17.66;64.29;102585.91;5065659;28;1720;-66
2021/09/22 05:04:24;;;;;;;;;;;;;;;17.73;67.56;102589.06;5064969;28;1445;-67
2021/09/22 05:06:50;;;;;;;;;;;;;;;17.84;68.53;102591.03;5063108;28;1425;-67
2021/09/22 05:09:16;;;;;;;;;;;;;;;17.88;68.75;102600.63;5063993;28;3169;-67
2021/09/22 05:11:43;;;;;;;;;;;;;;;17.83;70.72;102598.25;5068404;28;1682;-67
2021/09/22 05:14:08;;;;;;;;;;;;;;;17.79;70.48;102596.72;5064197;28;1694;-66
2021/09/22 05:16:33;;;;;;;;;;;;;;;17.74;67.26;102596.16;5064367;28;1596;-66
2021/09/22 05:18:58;;;;;;;;;;;;;;;17.77;67.22;102595.09;5065399;28;1316;-66
2021/09/22 05:21:23;;;;;;;;;;;;;;;17.76;67.37;102593.34;5043243;28;1357;-66
2021/09/22 05:23:48;;;;;;;;;;;;;;;17.75;67.53;102592.50;5047908;28;1754;-65
2021/09/22 05:26:13;;;;;;;;;;;;;;;17.74;68.28;102595.28;5069924;28;1490;-66
2021/09/22 05:28:38;;;;;;;;;;;;;;;17.73;67.40;102594.44;5071313;28;1940;-66
2021/09/22 05:31:03;;;;;;;;;;;;;;;17.73;67.64;102598.97;5070853;28;1749;-66
2021/09/22 05:33:28;;;;;;;;;;;;;;;17.72;67.30;102600.81;5071909;28;1350;-67
2021/09/22 05:35:54;;;;;;;;;;;;;;;17.72;67.42;102599.94;5069992;28;1683;-65
2021/09/22 05:38:19;;;;;;;;;;;;;;;17.71;67.17;102603.59;5073063;28;1539;-65
2021/09/22 05:40:44;;;;;;;;;;;;;;;17.71;67.31;102606.31;5073294;28;1737;-65
2021/09/22 05:43:09;;;;;;;;;;;;;;;17.71;67.07;102611.69;5074101;28;1390;-65
2021/09/22 05:45:34;;;;;;;;;;;;;;;17.69;66.80;102607.28;5070489;28;1475;-65
2021/09/22 05:47:59;;;;;;;;;;;;;;;17.69;67.04;102604.56;5070333;28;1897;-65
2021/09/22 05:50:24;;;;;;;;;;;;;;;17.68;66.96;102605.53;5073642;28;1013;-65
2021/09/22 05:52:49;;;;;;;;;;;;;;;17.69;66.83;102603.72;5073491;28;1989;-65
2021/09/22 05:55:14;;;;;;;;;;;;;;;17.68;66.89;102597.44;5073488;28;1668;-65
2021/09/22 05:57:41;;;;;;;;;;;;;;;17.72;66.17;102602.63;5073919;28;905;-65
2021/09/22 06:00:06;;;;;;;;;;;;;;;17.72;65.83;102608.03;5070244;28;1580;-65
2021/09/22 06:02:31;;;;;;;;;;;;;;;17.69;66.12;102601.88;5055799;28;1627;-65
2021/09/22 06:04:56;;;;;;;;;;;;;;;17.68;65.96;102602.84;5053216;28;1353;-65
2021/09/22 06:07:21;;;;;;;;;;;;;;;17.72;66.14;102616.13;5053438;28;1902;-64
2021/09/22 06:09:46;;;;;;;;;;;;;;;17.72;66.15;102602.63;5059530;28;1981;-65
2021/09/22 06:12:11;;;;;;;;;;;;;;;17.73;65.73;102609.75;5076414;28;1938;-64
2021/09/22 06:14:36;;;;;;;;;;;;;;;17.74;66.26;102606.06;5077136;28;1949;-65
2021/09/22 06:17:01;;;;;;;;;;;;;;;17.76;65.92;102607.69;5077020;28;1088;-65
2021/09/22 06:19:26;;;;;;;;;;;;;;;17.76;65.92;102604.13;5077122;28;1031;-65
2021/09/22 06:21:52;;;;;;;;;;;;;;;17.78;65.56;102607.59;5077270;28;886;-65
2021/09/22 06:24:20;;;;;;;;;;;;;;;17.79;65.27;102612.03;5076927;28;1072;-65
2021/09/22 06:26:45;;;;;;;;;;;;;;;17.81;65.79;102612.78;5076574;28;768;-65
2021/09/22 06:29:10;;;;;;;;;;;;;;;17.84;65.58;102610.75;5076450;28;1894;-65
2021/09/22 06:31:37;;;;;;;;;;;;;;;17.86;65.21;102608.84;5076508;28;807;-65
2021/09/22 06:34:02;;;;;;;;;;;;;;;17.87;65.37;102612.41;5076979;28;938;-65
2021/09/22 06:36:27;;;;;;;;;;;;;;;17.88;65.24;102612.28;5058650;28;1013;-65
2021/09/22 06:38:52;;;;;;;;;;;;;;;17.94;65.17;102611.84;5076870;28;1470;-65
2021/09/22 06:41:17;;;;;;;;;;;;;;;17.94;64.66;102617.25;5076549;28;1020;-63
2021/09/22 06:43:42;;;;;;;;;;;;;;;17.95;65.39;102615.41;5076405;28;965;-65
2021/09/22 06:46:07;;;;;;;;;;;;;;;17.93;64.93;102620.03;5076575;28;1902;-65
2021/09/22 06:48:33;;;;;;;;;;;;;;;17.92;65.41;102618.31;5075757;28;1961;-69
2021/09/22 06:50:58;;;;;;;;;;;;;;;17.97;65.22;102621.56;5066925;28;1743;-69
2021/09/22 06:53:23;;;;;;;;;;;;;;;18.02;64.87;102622.13;5056732;28;981;-66
2021/09/22 06:55:48;;;;;;;;;;;;;;;18.06;65.61;102622.81;5062967;28;1752;-67
2021/09/22 06:58:13;;;;;;;;;;;;;;;18.12;65.57;102623.22;5065764;28;1755;-67
2021/09/22 07:00:38;;;;;;;;;;;;;;;18.18;65.59;102622.81;5068921;28;1901;-68
2021/09/22 07:03:09;;;;;;;;;;;;;;;18.24;66.27;102629.63;5076190;28;1670;-67
2021/09/22 07:05:35;;;;;;;;;;;;;;;18.27;65.67;102632.13;5076285;28;2007;-68
2021/09/22 07:08:00;;;;;;;;;;;;;;;18.29;65.72;102617.53;5058004;28;1969;-68
2021/09/22 07:10:27;;;;;;;;;;;;;;;18.38;65.56;102626.84;5076412;28;966;-69
2021/09/22 07:12:52;;;;;;;;;;;;;;;18.47;65.77;102618.09;5076353;28;897;-73
2021/09/22 07:15:17;;;;;;;;;;;;;;;18.58;65.77;102625.44;5057805;28;1608;-69
2021/09/22 07:17:42;;;;;;;;;;;;;;;18.65;65.09;102626.75;5050575;28;1288;-67
2021/09/22 07:20:07;;;;;;;;;;;;;;;18.71;65.38;102629.91;5066085;28;1401;-69
2021/09/22 07:22:33;;;;;;;;;;;;;;;18.76;65.04;102639.53;5053666;28;1725;-66
2021/09/22 07:24:58;;;;;;;;;;;;;;;18.80;64.61;102643.75;5062586;28;1844;-67
2021/09/22 07:27:23;;;;;;;;;;;;;;;18.74;65.44;102623.41;5068908;28;1957;-66
2021/09/22 07:29:48;;;;;;;;;;;;;;;18.81;64.91;102632.78;5075365;28;799;-65
2021/09/22 07:32:13;;;;;;;;;;;;;;;18.90;64.49;102634.84;5075171;28;717;-67
2021/09/22 07:34:38;;;;;;;;;;;;;;;18.97;64.66;102633.44;5075244;28;784;-70
2021/09/22 07:37:07;;;;;;;;;;;;;;;19.03;64.53;102627.59;5075028;28;788;-68
2021/09/22 07:39:32;;;;;;;;;;;;;;;19.09;64.96;102626.28;5057259;28;830;-72
2021/09/22 07:41:57;;;;;;;;;;;;;;;19.18;64.36;102630.16;5075110;28;1805;-65
2021/09/22 07:44:23;;;;;;;;;;;;;;;19.22;63.74;102632.53;5074844;28;1784;-67
2021/09/22 07:46:48;;;;;;;;;;;;;;;19.27;64.43;102635.75;5057009;28;836;-68
2021/09/22 07:49:13;;;;;;;;;;;;;;;19.26;64.07;102631.31;5074917;28;1893;-66
2021/09/22 07:51:38;;;;;;;;;;;;;;;19.25;64.07;102631.44;5075005;28;1088;-71
2021/09/22 07:54:03;;;;;;;;;;;;;;;19.26;64.24;102628.63;5075007;28;827;-71
2021/09/22 07:56:28;;;;;;;;;;;;;;;19.29;63.75;102633.81;5074988;28;839;-71
2021/09/22 07:58:53;;;;;;;;;;;;;;;19.24;64.28;102629.72;5068776;28;1608;-71
2021/09/22 08:01:18;;;;;;;;;;;;;;;19.24;64.14;102624.31;5074481;28;1595;-69
2021/09/22 08:03:43;;;;;;;;;;;;;;;19.32;64.06;102616.50;5054890;28;1785;-69
2021/09/22 08:06:08;;;;;;;;;;;;;;;19.39;63.75;102623.16;5074541;28;918;-69
2021/09/22 08:08:33;;;;;;;;;;;;;;;19.43;64.26;102624.69;5074586;28;1882;-69
2021/09/22 08:10:58;;;;;;;;;;;;;;;19.43;63.90;102622.84;5074541;28;1108;-66
2021/09/22 08:13:23;;;;;;;;;;;;;;;19.48;63.81;102619.78;5074720;28;844;-68
2021/09/22 08:15:49;;;;;;;;;;;;;;;19.57;63.77;102621.84;5074514;28;913;-66
2021/09/22 08:18:14;;;;;;;;;;;;;;;19.56;63.26;102620.09;5074271;28;1779;-67
2021/09/22 08:20:39;;;;;;;;;;;;;;;19.55;63.94;102623.78;5070889;28;1656;-70
2021/09/22 08:23:04;;;;;;;;;;;;;;;19.50;64.32;102626.00;5045957;28;1381;-70
2021/09/22 08:25:30;;;;;;;;;;;;;;;19.42;64.12;102623.81;5069600;28;1749;-74
2021/09/22 08:27:55;;;;;;;;;;;;;;;19.48;63.75;102627.91;5060866;28;1909;-66
2021/09/22 08:30:20;;;;;;;;;;;;;;;19.51;63.38;102616.91;5070455;28;1648;-68
2021/09/22 08:32:45;;;;;;;;;;;;;;;19.51;63.23;102611.50;5073924;28;858;-69
2021/09/22 08:35:10;;;;;;;;;;;;;;;19.50;63.99;102608.91;5055565;28;847;-70
2021/09/22 08:37:35;;;;;;;;;;;;;;;19.51;64.19;102616.91;5074139;28;1924;-66
2021/09/22 08:40:01;;;;;;;;;;;;;;;19.52;63.48;102615.94;5065668;28;1989;-70
2021/09/22 08:42:26;;;;;;;;;;;;;;;19.54;64.03;102616.66;5074676;28;852;-66
2021/09/22 08:44:51;;;;;;;;;;;;;;;19.54;64.07;102611.25;5063097;28;2056;-67
2021/09/22 08:47:16;;;;;;;;;;;;;;;19.58;63.54;102612.75;5068282;28;1875;-70
2021/09/22 08:49:41;;;;;;;;;;;;;;;19.57;63.74;102605.59;5071420;28;1428;-70
2021/09/22 08:52:07;;;;;;;;;;;;;;;19.61;63.38;102600.84;5063425;28;1430;-74
2021/09/22 08:54:32;;;;;;;;;;;;;;;19.63;64.06;102597.03;5046225;28;1428;-69
2021/09/22 08:57:00;;;;;;;;;;;;;;;19.66;63.32;102596.81;5063716;28;1528;-74
2021/09/22 08:59:25;;;;;;;;;;;;;;;19.68;62.46;102602.13;5071086;28;1274;-67
2021/09/22 09:01:50;;;;;;;;;;;;;;;19.69;62.78;102604.72;5065186;28;1455;-68
2021/09/22 09:04:15;;;;;;;;;;;;;;;19.71;62.58;102599.16;5042927;28;1335;-68
2021/09/22 09:06:40;;;;;;;;;;;;;;;19.67;62.95;102606.66;5060260;28;1175;-67
2021/09/22 09:09:05;;;;;;;;;;;;;;;19.61;62.15;102596.28;5071871;28;1975;-67
2021/09/22 09:11:30;;;;;;;;;;;;;;;19.57;62.72;102607.44;5073463;28;953;-67
2021/09/22 09:13:55;;;;;;;;;;;;;;;19.54;63.81;102611.25;5068394;28;1472;-67
2021/09/22 09:16:25;;;;;;;;;;;;;;;19.56;63.59;102603.88;5073300;28;1760;-67
2021/09/22 09:18:50;;;;;;;;;;;;;;;19.59;63.78;102590.13;5073598;28;1657;-69
2021/09/22 09:21:15;;;;;;;;;;;;;;;19.58;63.50;102596.50;5073444;28;882;-66
2021/09/22 09:23:40;;;;;;;;;;;;;;;19.60;63.13;102596.41;5072992;28;1396;-70
2021/09/22 09:26:05;;;;;;;;;;;;;;;19.60;63.56;102609.94;5065245;28;1428;-70
2021/09/22 09:28:30;;;;;;;;;;;;;;;19.60;63.33;102599.97;5060853;28;1902;-67
2021/09/22 09:30:55;;;;;;;;;;;;;;;19.61;63.69;102595.44;5061809;28;1113;-65
2021/09/22 09:33:21;;;;;;;;;;;;;;;19.63;62.71;102602.44;5068149;28;1916;-67
2021/09/22 09:35:46;;;;;;;;;;;;;;;19.63;63.13;102593.47;5053714;28;1814;-69
2021/09/22 09:38:11;;;;;;;;;;;;;;;19.67;63.28;102585.03;5070922;28;1649;-69
2021/09/22 09:40:36;;;;;;;;;;;;;;;19.65;63.37;102586.97;5068400;28;1435;-68
2021/09/22 09:43:01;;;;;;;;;;;;;;;19.65;63.43;102588.81;5067626;28;1405;-68
2021/09/22 09:45:26;;;;;;;;;;;;;;;19.65;62.77;102581.56;5055280;28;1381;-67
2021/09/22 09:47:51;;;;;;;;;;;;;;;19.66;63.40;102594.13;5074936;28;1906;-68
2021/09/22 09:50:17;;;;;;;;;;;;;;;19.63;63.04;102586.22;5068407;28;1860;-67
2021/09/22 09:52:42;;;;;;;;;;;;;;;19.66;63.53;102588.69;5074649;28;1322;-71
2021/09/22 09:55:07;;;;;;;;;;;;;;;19.69;63.10;102587.63;5074720;28;1424;-74
2021/09/22 09:57:32;;;;;;;;;;;;;;;19.64;63.35;102590.66;5074666;28;1471;-74
2021/09/22 09:59:58;;;;;;;;;;;;;;;19.67;63.62;102592.28;5071098;28;1388;-70
2021/09/22 10:02:24;;;;;;;;;;;;;;;19.62;63.74;102589.91;5067122;28;1578;-68
2021/09/22 10:04:49;;;;;;;;;;;;;;;19.59;63.49;102592.84;5074261;28;1550;-68
2021/09/22 10:07:14;;;;;;;;;;;;;;;19.55;63.15;102585.06;5059340;28;867;-68
2021/09/22 10:09:39;;;;;;;;;;;;;;;19.53;62.17;102585.16;5076717;28;1964;-68
2021/09/22 10:12:04;;;;;;;;;;;;;;;19.51;62.74;102583.59;5069487;28;1693;-69
2021/09/22 10:14:31;;;;;;;;;;;;;;;19.50;63.57;102580.03;5073295;28;1423;-69
2021/09/22 10:16:56;;;;;;;;;;;;;;;19.46;63.13;102575.78;5075182;28;1737;-69
2021/09/22 10:19:21;;;;;;;;;;;;;;;19.45;63.08;102571.34;5072138;28;1527;-69
2021/09/22 10:21:46;;;;;;;;;;;;;;;19.45;62.54;102571.34;5071021;28;1894;-69
2021/09/22 10:24:11;;;;;;;;;;;;;;;19.45;62.41;102574.06;5075470;28;1525;-70
2021/09/22 10:26:36;;;;;;;;;;;;;;;19.45;62.52;102571.34;5074838;28;1565;-69
2021/09/22 10:29:01;;;;;;;;;;;;;;;19.45;62.65;102570.47;5075038;28;1902;-69
2021/09/22 10:31:26;;;;;;;;;;;;;;;19.45;62.93;102573.19;5075872;28;1588;-69
2021/09/22 10:33:51;;;;;;;;;;;;;;;19.51;63.11;102565.53;5066499;28;1731;-66
2021/09/22 10:36:17;;;;;;;;;;;;;;;19.53;63.09;102568.94;5075293;28;1522;-66
2021/09/22 10:38:42;;;;;;;;;;;;;;;19.55;63.19;102563.44;5075234;28;1392;-66
2021/09/22 10:41:07;;;;;;;;;;;;;;;19.58;63.39;102564.06;5057069;28;1357;-70
2021/09/22 10:43:32;;;;;;;;;;;;;;;19.58;63.59;102558.66;5069183;28;1569;-65
2021/09/22 10:45:57;;;;;;;;;;;;;;;19.61;63.60;102561.13;5054891;28;1428;-64
2021/09/22 10:48:22;;;;;;;;;;;;;;;19.60;64.47;102559.41;5073439;28;1894;-63
2021/09/22 10:50:47;;;;;;;;;;;;;;;19.61;62.99;102550.31;5075851;28;1705;-63
2021/09/22 10:53:12;;;;;;;;;;;;;;;19.66;64.34;102550.84;5058841;28;1187;-68
2021/09/22 10:55:37;;;;;;;;;;;;;;;19.70;63.79;102552.34;5069848;28;1607;-71
2021/09/22 10:58:02;;;;;;;;;;;;;;;19.74;63.53;102548.38;5064157;28;1294;-67
2021/09/22 11:00:28;;;;;;;;;;;;;;;19.73;62.75;102552.06;5063023;28;1605;-67
2021/09/22 11:02:53;;;;;;;;;;;;;;;19.73;63.48;102548.50;5071354;28;1122;-71
2021/09/22 11:05:18;;;;;;;;;;;;;;;19.78;63.00;102546.31;5057802;28;1438;-70
2021/09/22 11:07:43;;;;;;;;;;;;;;;19.82;63.47;102546.94;5069710;28;1977;-72
2021/09/22 11:10:09;;;;;;;;;;;;;;;19.81;63.33;102547.94;5065442;28;1692;-73
2021/09/22 11:12:34;;;;;;;;;;;;;;;19.83;63.92;102538.72;5068850;28;1123;-67
2021/09/22 11:14:59;;;;;;;;;;;;;;;19.87;63.98;102547.47;5058880;28;1363;-69
2021/09/22 11:17:24;;;;;;;;;;;;;;;19.89;63.79;102540.06;5074575;28;1328;-68
2021/09/22 11:19:49;;;;;;;;;;;;;;;19.92;63.70;102534.41;5074418;28;1696;-69
2021/09/22 11:22:14;;;;;;;;;;;;;;;19.93;63.44;102542.41;5056324;28;1585;-68
2021/09/22 11:24:41;;;;;;;;;;;;;;;19.94;63.21;102529.75;5043112;28;1378;-69
2021/09/22 11:27:06;;;;;;;;;;;;;;;19.95;62.66;102526.06;5072152;28;1478;-70
2021/09/22 11:29:31;;;;;;;;;;;;;;;19.99;63.29;102519.44;5070354;28;1953;-70
2021/09/22 11:31:56;;;;;;;;;;;;;;;20.00;63.10;102521.16;5066922;28;1282;-72
2021/09/22 11:34:21;;;;;;;;;;;;;;;20.04;63.52;102518.09;5048476;28;1472;-69
2021/09/22 11:36:46;;;;;;;;;;;;;;;20.10;63.05;102514.03;5073247;28;1460;-68
2021/09/22 11:39:11;;;;;;;;;;;;;;;20.09;63.46;102498.78;5053009;28;1441;-72
2021/09/22 11:41:36;;;;;;;;;;;;;;;20.09;63.08;102502.34;5067167;28;1794;-65
2021/09/22 11:44:01;;;;;;;;;;;;;;;20.11;62.56;102502.22;5072074;28;1540;-71
2021/09/22 11:46:26;;;;;;;;;;;;;;;20.13;63.06;102500.25;5075622;28;1979;-66
2021/09/22 11:48:52;;;;;;;;;;;;;;;20.18;62.77;102498.06;5074965;28;1882;-66
2021/09/22 11:51:17;;;;;;;;;;;;;;;20.21;62.65;102492.41;5057397;28;1474;-66
2021/09/22 11:53:44;;;;;;;;;;;;;;;20.21;63.26;102491.56;5075678;28;873;-70
2021/09/22 11:56:09;;;;;;;;;;;;;;;20.28;62.58;102490.06;5053600;28;1875;-66
2021/09/22 11:58:34;;;;;;;;;;;;;;;20.28;62.80;102490.91;5068704;28;2018;-68
2021/09/22 12:00:59;;;;;;;;;;;;;;;20.28;62.86;102488.22;5075314;28;842;-71
2021/09/22 12:03:24;;;;;;;;;;;;;;;20.27;62.66;102488.34;5075230;28;910;-68
2021/09/22 12:05:49;;;;;;;;;;;;;;;20.28;63.13;102488.22;5074750;28;1898;-69
2021/09/22 12:08:14;;;;;;;;;;;;;;;20.29;62.44;102484.53;5073998;28;1906;-71
2021/09/22 12:10:39;;;;;;;;;;;;;;;20.29;62.57;102473.69;5074834;28;929;-67
2021/09/22 12:13:04;;;;;;;;;;;;;;;20.33;61.99;102469.75;5073429;28;1853;-70
2021/09/22 12:15:30;;;;;;;;;;;;;;;20.35;62.16;102473.22;5057574;28;2088;-69
2021/09/22 12:17:55;;;;;;;;;;;;;;;20.38;62.84;102472.16;5074312;28;1894;-66
2021/09/22 12:20:20;;;;;;;;;;;;;;;20.42;62.43;102470.91;5074769;28;992;-69
2021/09/22 12:22:45;;;;;;;;;;;;;;;20.45;62.06;102468.78;5074403;28;832;-64
2021/09/22 12:25:10;;;;;;;;;;;;;;;20.53;62.76;102472.75;5074701;28;1831;-68
2021/09/22 12:27:35;;;;;;;;;;;;;;;20.53;61.55;102451.94;5074591;28;1953;-69
2021/09/22 12:30:03;;;;;;;;;;;;;;;20.58;60.80;102448.88;5074740;28;1019;-69
2021/09/22 12:32:29;;;;;;;;;;;;;;;20.60;62.28;102455.03;5073841;28;1845;-67
2021/09/22 12:34:54;;;;;;;;;;;;;;;20.64;61.96;102461.88;5073842;28;1941;-68
2021/09/22 12:37:19;;;;;;;;;;;;;;;20.59;61.23;102465.00;5074225;28;886;-67
2021/09/22 12:39:44;;;;;;;;;;;;;;;20.59;62.47;102454.16;5074572;28;964;-67